Time;durP1;ratioP1;P1;durP2;ratioP2;P2;SDS_P1;SDS_P2;PMS_P1;PMS_P2;Temp;Humidity;BMP_temperature;BMP_pressure;BME280_temperature;BME280_humidity;BME280_pressure;Samples;Min_cycle;Max_cycle;Signal;HPM_P1;HPM_P2
2022/08/27 00:00:03;;;;;;;;;;;19.40;99.90;;;;;;5023353;28;19932;-73
2022/08/27 00:02:35;;;;;;;;;;;19.40;99.90;;;;;;5023550;28;19922;-74
2022/08/27 00:05:07;;;;;;;;;;;19.40;99.90;;;;;;5003337;28;19921;-72
2022/08/27 00:07:39;;;;;;;;;;;19.40;99.90;;;;;;5023179;28;20012;-73
2022/08/27 00:10:13;;;;;;;;;;;19.40;99.90;;;;;;5024742;28;19964;-72
2022/08/27 00:12:45;;;;;;;;;;;19.50;99.90;;;;;;5020560;28;19921;-71
2022/08/27 00:15:17;;;;;;;;;;;19.40;99.90;;;;;;5023639;28;19921;-72
2022/08/27 00:17:48;;;;;;;;;;;19.40;99.90;;;;;;5012003;28;19922;-74
2022/08/27 00:20:23;;;;;;;;;;;19.40;99.90;;;;;;5021075;28;19924;-72
2022/08/27 00:22:55;;;;;;;;;;;19.40;99.90;;;;;;5023887;28;19927;-72
2022/08/27 00:25:26;;;;;;;;;;;19.40;99.90;;;;;;5020686;28;20303;-72
2022/08/27 00:27:58;;;;;;;;;;;19.30;99.90;;;;;;5020760;28;19928;-72
2022/08/27 00:30:30;;;;;;;;;;;19.30;99.90;;;;;;5014385;28;20029;-73
2022/08/27 00:33:03;;;;;;;;;;;19.20;99.90;;;;;;5024381;28;19925;-73
2022/08/27 00:35:35;;;;;;;;;;;19.20;99.90;;;;;;5022298;28;19927;-72
2022/08/27 00:38:07;;;;;;;;;;;19.20;99.90;;;;;;5022895;28;19927;-72
2022/08/27 00:40:39;;;;;;;;;;;19.30;99.90;;;;;;5023418;28;19921;-72
2022/08/27 00:43:11;;;;;;;;;;;19.20;99.90;;;;;;5023236;28;19932;-72
2022/08/27 00:45:43;;;;;;;;;;;19.20;99.90;;;;;;5025875;28;19943;-73
2022/08/27 00:48:16;;;;;;;;;;;19.20;99.90;;;;;;5020468;28;19932;-72
2022/08/27 00:50:50;;;;;;;;;;;19.10;99.90;;;;;;5035833;28;19921;-72
2022/08/27 00:53:24;;;;;;;;;;;19.10;99.90;;;;;;5022853;28;19925;-72
2022/08/27 00:56:01;;;;;;;;;;;19.00;99.90;;;;;;5004058;28;19980;-72
2022/08/27 00:58:35;;;;;;;;;;;19.00;99.90;;;;;;5022058;28;20032;-72
2022/08/27 01:01:08;;;;;;;;;;;18.90;99.90;;;;;;5002423;28;20300;-72
2022/08/27 01:03:41;;;;;;;;;;;18.90;99.90;;;;;;5023205;28;19939;-72
2022/08/27 01:06:13;;;;;;;;;;;18.80;99.90;;;;;;5024114;28;19921;-72
2022/08/27 01:08:49;;;;;;;;;;;18.80;99.90;;;;;;5020339;28;19925;-72
2022/08/27 01:11:20;;;;;;;;;;;18.70;99.90;;;;;;5020995;28;19968;-73
2022/08/27 01:13:52;;;;;;;;;;;18.70;99.90;;;;;;5023214;28;19928;-72
2022/08/27 01:16:27;;;;;;;;;;;18.80;99.90;;;;;;5009842;28;19921;-72
2022/08/27 01:18:59;;;;;;;;;;;18.70;99.90;;;;;;5006031;28;20019;-71
2022/08/27 01:21:44;;;;;;;;;;;18.70;99.90;;;;;;5018574;28;19968;-73
2022/08/27 01:24:36;;;;;;;;;;;18.70;99.90;;;;;;5020123;28;19987;-73
2022/08/27 01:27:09;;;;;;;;;;;18.70;99.90;;;;;;5022987;28;19972;-72
2022/08/27 01:29:41;;;;;;;;;;;18.70;99.90;;;;;;5010848;28;19944;-72
2022/08/27 01:32:15;;;;;;;;;;;18.70;99.90;;;;;;5018053;28;19928;-72
2022/08/27 01:34:47;;;;;;;;;;;18.70;99.90;;;;;;5020674;28;19925;-72
2022/08/27 01:37:20;;;;;;;;;;;18.60;99.90;;;;;;5019800;28;19924;-72
2022/08/27 01:39:53;;;;;;;;;;;18.60;99.90;;;;;;5021548;28;19935;-72
2022/08/27 01:42:33;;;;;;;;;;;18.60;99.90;;;;;;5022128;28;20398;-72
2022/08/27 01:45:05;;;;;;;;;;;18.60;99.90;;;;;;5010041;28;19928;-72
2022/08/27 01:47:37;;;;;;;;;;;18.60;99.90;;;;;;5016666;28;19928;-72
2022/08/27 01:50:12;;;;;;;;;;;18.50;99.90;;;;;;5013270;28;19921;-72
2022/08/27 01:52:44;;;;;;;;;;;18.60;99.90;;;;;;5022123;28;19927;-73
2022/08/27 01:55:13;;;;;;;;;;;18.50;99.90;;;;;;5010666;28;19928;-72
2022/08/27 01:57:40;;;;;;;;;;;18.50;99.90;;;;;;5020771;28;20295;-72
2022/08/27 02:00:22;;;;;;;;;;;18.60;99.90;;;;;;4993562;28;19925;-72
2022/08/27 02:02:55;;;;;;;;;;;18.50;99.90;;;;;;5018450;28;20540;-72
2022/08/27 02:05:27;;;;;;;;;;;18.50;99.90;;;;;;5019549;28;19979;-74
2022/08/27 02:07:59;;;;;;;;;;;18.40;99.90;;;;;;5021185;28;19975;-72
2022/08/27 02:10:32;;;;;;;;;;;18.40;99.90;;;;;;5020789;28;19922;-72
2022/08/27 02:13:05;;;;;;;;;;;18.40;99.90;;;;;;5020324;28;19921;-72
2022/08/27 02:15:38;;;;;;;;;;;18.30;99.90;;;;;;5020905;28;19960;-72
2022/08/27 02:18:09;;;;;;;;;;;18.30;99.90;;;;;;5020197;28;20296;-73
2022/08/27 02:20:42;;;;;;;;;;;18.30;99.90;;;;;;5011599;28;19928;-72
2022/08/27 02:23:14;;;;;;;;;;;18.20;99.90;;;;;;5020292;28;19921;-73
2022/08/27 02:25:46;;;;;;;;;;;18.20;99.90;;;;;;5010306;28;19921;-73
2022/08/27 02:28:18;;;;;;;;;;;18.20;99.90;;;;;;4997937;28;19921;-72
2022/08/27 02:30:49;;;;;;;;;;;18.10;99.90;;;;;;5023316;28;19921;-72
2022/08/27 02:33:21;;;;;;;;;;;18.20;99.90;;;;;;5028533;28;20031;-72
2022/08/27 02:35:53;;;;;;;;;;;18.20;99.90;;;;;;5020458;28;19921;-74
2022/08/27 02:38:24;;;;;;;;;;;18.10;99.90;;;;;;5020314;28;20295;-72
2022/08/27 02:40:56;;;;;;;;;;;18.10;99.90;;;;;;5023370;28;19921;-73
2022/08/27 02:43:28;;;;;;;;;;;18.10;99.90;;;;;;5010142;28;19928;-72
2022/08/27 02:46:00;;;;;;;;;;;18.10;99.90;;;;;;5006081;28;19932;-71
2022/08/27 02:48:34;;;;;;;;;;;18.10;99.90;;;;;;5016312;28;19925;-75
2022/08/27 02:51:06;;;;;;;;;;;18.10;99.90;;;;;;5022568;28;19929;-72
2022/08/27 02:53:38;;;;;;;;;;;18.10;99.90;;;;;;5023745;28;19943;-72
2022/08/27 02:56:09;;;;;;;;;;;18.10;99.90;;;;;;5015367;28;19928;-72
2022/08/27 02:58:41;;;;;;;;;;;18.10;99.90;;;;;;5022136;28;19921;-72
2022/08/27 03:01:13;;;;;;;;;;;18.00;99.90;;;;;;5024496;28;19925;-75
2022/08/27 03:03:44;;;;;;;;;;;18.00;99.90;;;;;;5022142;28;19947;-72
2022/08/27 03:06:16;;;;;;;;;;;18.00;99.90;;;;;;5019015;28;19922;-72
2022/08/27 03:08:47;;;;;;;;;;;18.00;99.90;;;;;;5026016;28;19921;-73
2022/08/27 03:11:22;;;;;;;;;;;18.00;99.90;;;;;;5040008;28;19931;-72
2022/08/27 03:13:54;;;;;;;;;;;18.00;99.90;;;;;;5006565;28;19921;-72
2022/08/27 03:16:26;;;;;;;;;;;18.10;99.90;;;;;;5022920;28;19921;-72
2022/08/27 03:18:57;;;;;;;;;;;18.10;99.90;;;;;;5022127;28;20414;-72
2022/08/27 03:21:29;;;;;;;;;;;18.10;99.90;;;;;;5022283;28;19921;-72
2022/08/27 03:24:01;;;;;;;;;;;18.10;99.90;;;;;;5023070;28;19921;-73
2022/08/27 03:26:33;;;;;;;;;;;18.10;99.90;;;;;;5018591;28;19928;-72
2022/08/27 03:29:06;;;;;;;;;;;18.20;99.90;;;;;;5024341;28;19921;-73
2022/08/27 03:31:38;;;;;;;;;;;18.30;99.90;;;;;;5024782;28;20343;-73
2022/08/27 03:34:10;;;;;;;;;;;18.30;99.90;;;;;;5004895;28;19935;-71
2022/08/27 03:36:42;;;;;;;;;;;18.30;99.90;;;;;;5024088;28;19932;-73
2022/08/27 03:39:14;;;;;;;;;;;18.30;99.90;;;;;;5022649;28;19924;-73
2022/08/27 03:41:46;;;;;;;;;;;18.40;99.90;;;;;;5024158;28;19928;-72
2022/08/27 03:44:17;;;;;;;;;;;18.20;99.90;;;;;;5021731;28;19921;-72
2022/08/27 03:46:49;;;;;;;;;;;18.20;99.90;;;;;;5023892;28;19921;-72
2022/08/27 03:49:21;;;;;;;;;;;18.20;99.90;;;;;;5017054;28;19963;-72
2022/08/27 03:51:53;;;;;;;;;;;18.20;99.90;;;;;;5013970;28;20012;-73
2022/08/27 03:54:25;;;;;;;;;;;18.20;99.90;;;;;;5022479;28;19932;-73
2022/08/27 03:56:56;;;;;;;;;;;18.20;99.90;;;;;;5004644;28;19921;-73
2022/08/27 03:59:28;;;;;;;;;;;18.20;99.90;;;;;;5022910;28;20280;-72
2022/08/27 04:02:00;;;;;;;;;;;18.20;99.90;;;;;;5024734;28;19925;-72
2022/08/27 04:04:32;;;;;;;;;;;18.20;99.90;;;;;;5022707;28;19924;-72
2022/08/27 04:07:04;;;;;;;;;;;18.20;99.90;;;;;;5022379;28;19921;-74
2022/08/27 04:09:35;;;;;;;;;;;18.10;99.90;;;;;;5021530;28;19921;-72
2022/08/27 04:12:07;;;;;;;;;;;18.10;99.90;;;;;;5021419;28;20381;-72
2022/08/27 04:14:39;;;;;;;;;;;18.10;99.90;;;;;;5004438;28;19925;-73
2022/08/27 04:17:10;;;;;;;;;;;18.10;99.90;;;;;;5010895;28;19921;-73
2022/08/27 04:19:42;;;;;;;;;;;18.10;99.90;;;;;;5023231;28;19925;-73
2022/08/27 04:22:13;;;;;;;;;;;18.10;99.90;;;;;;5023668;28;20304;-73
2022/08/27 04:24:45;;;;;;;;;;;18.10;99.90;;;;;;5020682;28;19936;-73
2022/08/27 04:27:17;;;;;;;;;;;18.10;99.90;;;;;;5023242;28;19931;-72
2022/08/27 04:29:49;;;;;;;;;;;18.10;99.90;;;;;;5003571;28;19927;-73
2022/08/27 04:32:20;;;;;;;;;;;18.10;99.90;;;;;;5012928;28;19928;-73
2022/08/27 04:34:56;;;;;;;;;;;18.10;99.90;;;;;;5012412;28;19925;-73
2022/08/27 04:37:33;;;;;;;;;;;18.20;99.90;;;;;;5022429;28;19921;-73
2022/08/27 04:40:05;;;;;;;;;;;18.20;99.90;;;;;;5024384;28;19925;-74
2022/08/27 04:42:37;;;;;;;;;;;18.20;99.90;;;;;;5022084;28;19968;-73
2022/08/27 04:45:09;;;;;;;;;;;18.20;99.90;;;;;;4998169;28;20012;-73
2022/08/27 04:47:40;;;;;;;;;;;18.20;99.90;;;;;;5018066;28;19980;-73
2022/08/27 04:50:12;;;;;;;;;;;18.20;99.90;;;;;;5023928;28;20319;-73
2022/08/27 04:52:44;;;;;;;;;;;18.20;99.90;;;;;;5021165;28;19921;-73
2022/08/27 04:55:15;;;;;;;;;;;18.20;99.90;;;;;;5022057;28;20410;-73
2022/08/27 04:57:47;;;;;;;;;;;18.20;99.90;;;;;;5020893;28;19921;-73
2022/08/27 05:00:18;;;;;;;;;;;18.20;99.90;;;;;;5021948;28;19922;-73
2022/08/27 05:02:50;;;;;;;;;;;18.10;99.90;;;;;;5023319;28;20299;-73
2022/08/27 05:05:22;;;;;;;;;;;18.10;99.90;;;;;;5021127;28;19921;-73
2022/08/27 05:07:53;;;;;;;;;;;18.10;99.90;;;;;;5021375;28;20015;-73
2022/08/27 05:10:25;;;;;;;;;;;18.20;99.90;;;;;;5017631;28;19925;-73
2022/08/27 05:12:57;;;;;;;;;;;18.20;99.90;;;;;;5023331;28;20376;-73
2022/08/27 05:15:29;;;;;;;;;;;18.20;99.90;;;;;;5020184;28;19957;-73
2022/08/27 05:18:01;;;;;;;;;;;18.20;99.90;;;;;;5005138;28;19979;-73
2022/08/27 05:20:33;;;;;;;;;;;18.20;99.90;;;;;;5019293;28;19936;-73
2022/08/27 05:23:05;;;;;;;;;;;18.20;99.90;;;;;;5021506;28;19927;-73
2022/08/27 05:25:37;;;;;;;;;;;18.30;99.90;;;;;;5020383;28;19925;-73
2022/08/27 05:28:09;;;;;;;;;;;18.30;99.90;;;;;;5020941;28;19929;-73
2022/08/27 05:30:43;;;;;;;;;;;18.30;99.90;;;;;;5022094;28;19921;-73
2022/08/27 05:33:16;;;;;;;;;;;18.30;99.90;;;;;;4985308;28;19978;-73
2022/08/27 05:35:51;;;;;;;;;;;18.30;99.90;;;;;;5023987;28;19925;-73
2022/08/27 05:38:25;;;;;;;;;;;18.30;99.90;;;;;;5021710;28;19932;-73
2022/08/27 05:41:10;;;;;;;;;;;18.30;99.90;;;;;;5011649;28;20391;-73
2022/08/27 05:43:42;;;;;;;;;;;18.30;99.90;;;;;;5019975;28;19933;-73
2022/08/27 05:46:15;;;;;;;;;;;18.20;99.90;;;;;;5010021;28;20403;-73
2022/08/27 05:48:48;;;;;;;;;;;18.30;99.90;;;;;;5021891;28;19921;-73
2022/08/27 05:51:21;;;;;;;;;;;18.30;99.90;;;;;;5020156;28;19929;-73
2022/08/27 05:54:19;;;;;;;;;;;18.40;99.90;;;;;;5022776;28;19936;-73
2022/08/27 05:56:50;;;;;;;;;;;18.40;99.90;;;;;;5005155;28;20288;-73
2022/08/27 06:02:12;;;;;;;;;;;18.40;99.90;;;;;;5020010;28;19921;-73
2022/08/27 06:04:44;;;;;;;;;;;18.40;99.90;;;;;;5019358;28;20287;-73
2022/08/27 06:07:16;;;;;;;;;;;18.30;99.90;;;;;;5011524;28;20011;-73
2022/08/27 06:09:47;;;;;;;;;;;18.30;99.90;;;;;;5011561;28;19921;-73
2022/08/27 06:12:20;;;;;;;;;;;18.20;99.90;;;;;;5018577;28;19925;-73
2022/08/27 06:14:51;;;;;;;;;;;18.10;99.90;;;;;;5017816;28;19921;-73
2022/08/27 06:17:23;;;;;;;;;;;18.10;99.90;;;;;;5025523;28;20019;-73
2022/08/27 06:19:55;;;;;;;;;;;18.20;99.90;;;;;;5016282;28;20390;-74
2022/08/27 06:22:27;;;;;;;;;;;18.20;99.90;;;;;;5023723;28;19943;-74
2022/08/27 06:24:59;;;;;;;;;;;18.20;99.90;;;;;;5026755;28;19928;-74
2022/08/27 06:27:30;;;;;;;;;;;18.30;99.90;;;;;;5027454;28;20372;-74
2022/08/27 06:30:02;;;;;;;;;;;18.30;99.90;;;;;;5024046;28;19922;-74
2022/08/27 06:32:34;;;;;;;;;;;18.30;99.90;;;;;;5017017;28;19921;-74
2022/08/27 06:35:06;;;;;;;;;;;18.30;99.90;;;;;;5039377;28;19921;-74
2022/08/27 06:37:38;;;;;;;;;;;18.30;99.90;;;;;;5025169;28;19921;-74
2022/08/27 06:40:10;;;;;;;;;;;18.30;99.90;;;;;;5021681;28;20343;-74
2022/08/27 06:42:41;;;;;;;;;;;18.40;99.90;;;;;;5027587;28;19921;-73
2022/08/27 06:45:13;;;;;;;;;;;18.40;99.90;;;;;;5025626;28;19932;-73
2022/08/27 06:47:45;;;;;;;;;;;18.40;99.90;;;;;;5004882;28;19921;-73
2022/08/27 06:50:19;;;;;;;;;;;18.40;99.90;;;;;;5025642;28;19922;-73
2022/08/27 06:52:50;;;;;;;;;;;18.40;99.90;;;;;;5023651;28;19932;-73
2022/08/27 06:55:22;;;;;;;;;;;18.50;99.90;;;;;;5024411;28;20364;-73
2022/08/27 06:57:53;;;;;;;;;;;18.40;99.90;;;;;;5024573;28;19925;-73
2022/08/27 07:00:25;;;;;;;;;;;18.50;99.90;;;;;;5023157;28;19987;-73
2022/08/27 07:02:57;;;;;;;;;;;18.50;99.90;;;;;;5008459;28;19921;-73
2022/08/27 07:05:28;;;;;;;;;;;18.60;99.90;;;;;;5022835;28;19963;-73
2022/08/27 07:08:01;;;;;;;;;;;18.60;99.90;;;;;;5011769;28;19921;-73
2022/08/27 07:10:33;;;;;;;;;;;18.60;99.90;;;;;;5022113;28;19921;-73
2022/08/27 07:13:04;;;;;;;;;;;18.70;99.90;;;;;;5021908;28;19928;-74
2022/08/27 07:15:40;;;;;;;;;;;18.70;99.90;;;;;;5022048;28;19984;-73
2022/08/27 07:18:12;;;;;;;;;;;18.70;99.90;;;;;;5023082;28;19925;-73
2022/08/27 07:20:43;;;;;;;;;;;18.70;99.90;;;;;;5005404;28;20265;-73
2022/08/27 07:23:15;;;;;;;;;;;18.80;99.90;;;;;;5014606;28;20036;-73
2022/08/27 07:25:47;;;;;;;;;;;18.80;99.90;;;;;;5003609;28;19921;-73
2022/08/27 07:28:19;;;;;;;;;;;18.80;99.90;;;;;;5006000;28;19925;-74
2022/08/27 07:30:51;;;;;;;;;;;18.70;99.90;;;;;;5025296;28;19928;-73
2022/08/27 07:33:24;;;;;;;;;;;18.80;99.90;;;;;;5040201;28;20351;-73
2022/08/27 07:35:55;;;;;;;;;;;18.80;99.90;;;;;;5023826;28;20407;-73
2022/08/27 07:38:27;;;;;;;;;;;18.80;99.90;;;;;;5025717;28;19975;-73
2022/08/27 07:40:59;;;;;;;;;;;18.80;99.90;;;;;;5026227;28;20307;-73
2022/08/27 07:46:21;;;;;;;;;;;19.00;99.90;;;;;;5021327;28;20411;-73
2022/08/27 07:48:55;;;;;;;;;;;19.10;99.90;;;;;;5024138;28;20291;-73
2022/08/27 07:51:28;;;;;;;;;;;19.10;99.90;;;;;;5023992;28;20011;-73
2022/08/27 07:54:00;;;;;;;;;;;19.10;99.90;;;;;;5026337;28;19961;-74
2022/08/27 07:56:31;;;;;;;;;;;19.10;99.90;;;;;;5013054;28;19968;-74
2022/08/27 07:59:03;;;;;;;;;;;19.10;99.90;;;;;;5013129;28;19952;-74
2022/08/27 08:01:35;;;;;;;;;;;19.10;99.90;;;;;;5012603;28;19929;-74
2022/08/27 08:04:07;;;;;;;;;;;19.10;99.90;;;;;;5023473;28;19921;-74
2022/08/27 08:06:39;;;;;;;;;;;19.10;99.90;;;;;;5015453;28;20368;-74
2022/08/27 08:09:11;;;;;;;;;;;19.10;99.90;;;;;;5013343;28;19921;-74
2022/08/27 08:11:42;;;;;;;;;;;19.10;99.90;;;;;;5013197;28;19921;-74
2022/08/27 08:14:15;;;;;;;;;;;19.10;99.90;;;;;;5020824;28;20232;-74
2022/08/27 08:16:46;;;;;;;;;;;19.10;99.90;;;;;;5022702;28;19922;-74
2022/08/27 08:19:18;;;;;;;;;;;19.10;99.90;;;;;;5022562;28;19944;-74
2022/08/27 08:21:49;;;;;;;;;;;19.20;99.90;;;;;;5021731;28;20379;-74
2022/08/27 08:24:21;;;;;;;;;;;19.20;99.90;;;;;;5021452;28;19921;-73
2022/08/27 08:26:53;;;;;;;;;;;19.10;99.90;;;;;;5013170;28;19921;-73
2022/08/27 08:29:24;;;;;;;;;;;19.20;99.90;;;;;;5003061;28;19947;-73
2022/08/27 08:31:56;;;;;;;;;;;19.20;99.90;;;;;;5024447;28;19928;-73
2022/08/27 08:34:28;;;;;;;;;;;19.20;99.90;;;;;;5021563;28;20470;-73
2022/08/27 08:36:59;;;;;;;;;;;19.10;99.90;;;;;;5012511;28;19921;-74
2022/08/27 08:39:31;;;;;;;;;;;19.20;99.90;;;;;;5022929;28;19928;-73
2022/08/27 08:42:04;;;;;;;;;;;19.20;99.90;;;;;;5020994;28;19921;-73
2022/08/27 08:44:39;;;;;;;;;;;19.10;99.90;;;;;;5021929;28;20494;-73
2022/08/27 08:47:11;;;;;;;;;;;19.20;99.90;;;;;;5021141;28;19968;-73
2022/08/27 08:49:41;;;;;;;;;;;19.20;99.90;;;;;;5013634;28;19925;-73
2022/08/27 08:52:15;;;;;;;;;;;19.30;99.90;;;;;;5003867;28;19921;-73
2022/08/27 08:54:48;;;;;;;;;;;19.40;99.90;;;;;;4994613;28;19929;-73
2022/08/27 08:57:23;;;;;;;;;;;19.40;99.90;;;;;;5012626;28;19976;-74
2022/08/27 08:59:58;;;;;;;;;;;19.50;99.90;;;;;;5039990;28;19928;-73
2022/08/27 09:02:31;;;;;;;;;;;19.60;99.90;;;;;;5020898;28;19929;-73
2022/08/27 09:05:05;;;;;;;;;;;19.60;99.90;;;;;;5007841;28;19936;-73
2022/08/27 09:07:51;;;;;;;;;;;19.70;99.90;;;;;;5023176;28;19921;-73
2022/08/27 09:10:40;;;;;;;;;;;19.80;99.90;;;;;;5023659;28;19922;-74
2022/08/27 09:13:25;;;;;;;;;;;19.80;99.90;;;;;;5011413;28;19932;-73
2022/08/27 09:15:58;;;;;;;;;;;20.00;99.90;;;;;;5010227;28;19936;-73
2022/08/27 09:18:33;;;;;;;;;;;20.10;99.90;;;;;;5012094;28;20023;-73
2022/08/27 09:21:27;;;;;;;;;;;20.20;99.90;;;;;;5022583;28;19921;-73
2022/08/27 09:24:02;;;;;;;;;;;20.30;99.90;;;;;;5038741;28;19927;-73
2022/08/27 09:26:36;;;;;;;;;;;20.50;99.90;;;;;;5013455;28;19921;-73
2022/08/27 09:29:15;;;;;;;;;;;20.70;99.90;;;;;;5023418;28;20533;-73
2022/08/27 09:32:04;;;;;;;;;;;20.70;99.90;;;;;;5003145;28;19921;-73
2022/08/27 09:34:37;;;;;;;;;;;20.90;99.90;;;;;;5003964;28;19928;-73
2022/08/27 09:37:19;;;;;;;;;;;20.90;99.90;;;;;;5003850;28;19922;-73
2022/08/27 09:39:50;;;;;;;;;;;20.90;99.90;;;;;;5018177;28;19926;-73
2022/08/27 09:42:26;;;;;;;;;;;21.00;99.90;;;;;;5001935;28;20303;-73
2022/08/27 09:44:57;;;;;;;;;;;21.10;99.90;;;;;;5023186;28;19976;-73
2022/08/27 09:47:39;;;;;;;;;;;21.30;99.90;;;;;;4994811;28;19921;-73
2022/08/27 09:50:11;;;;;;;;;;;21.40;99.90;;;;;;5022415;28;19920;-73
2022/08/27 09:52:50;;;;;;;;;;;21.50;99.90;;;;;;5024138;28;20392;-73
2022/08/27 09:55:26;;;;;;;;;;;21.50;99.90;;;;;;5012921;28;20299;-73
2022/08/27 09:57:57;;;;;;;;;;;21.50;99.90;;;;;;5026393;28;19928;-73
2022/08/27 10:00:35;;;;;;;;;;;21.70;99.90;;;;;;5026072;28;20663;-73
2022/08/27 10:03:07;;;;;;;;;;;21.90;99.90;;;;;;5011449;28;19921;-73
2022/08/27 10:05:57;;;;;;;;;;;22.00;99.90;;;;;;5021087;28;19975;-73
2022/08/27 10:08:40;;;;;;;;;;;22.10;99.90;;;;;;4993023;28;19921;-73
2022/08/27 10:11:20;;;;;;;;;;;22.20;99.90;;;;;;5026880;28;19964;-73
2022/08/27 10:14:11;;;;;;;;;;;22.10;99.90;;;;;;5023835;28;19925;-73
2022/08/27 10:16:45;;;;;;;;;;;22.10;99.90;;;;;;5025528;28;19921;-73
2022/08/27 10:19:24;;;;;;;;;;;22.10;99.90;;;;;;5007789;28;20426;-74
2022/08/27 10:22:02;;;;;;;;;;;22.10;99.90;;;;;;5015062;28;19961;-74
2022/08/27 10:24:37;;;;;;;;;;;22.20;99.90;;;;;;4998053;28;19925;-74
2022/08/27 10:27:27;;;;;;;;;;;22.50;99.90;;;;;;5014083;28;19922;-72
2022/08/27 10:30:17;;;;;;;;;;;22.80;99.90;;;;;;5022486;28;19928;-73
2022/08/27 10:32:55;;;;;;;;;;;22.80;99.90;;;;;;5014685;28;19930;-73
2022/08/27 10:35:46;;;;;;;;;;;22.80;99.90;;;;;;5023198;28;19965;-74
2022/08/27 10:38:24;;;;;;;;;;;22.80;99.90;;;;;;5021857;28;19931;-74
2022/08/27 10:41:19;;;;;;;;;;;22.80;99.90;;;;;;5028556;28;19924;-74
2022/08/27 10:44:03;;;;;;;;;;;22.80;99.90;;;;;;5009685;28;19922;-73
2022/08/27 10:46:35;;;;;;;;;;;22.80;99.90;;;;;;5017308;28;19987;-74
2022/08/27 10:49:13;;;;;;;;;;;23.00;99.90;;;;;;5016278;28;20015;-74
2022/08/27 10:51:50;;;;;;;;;;;23.10;99.90;;;;;;5025899;28;19921;-73
2022/08/27 10:54:22;;;;;;;;;;;23.00;99.90;;;;;;5014051;28;20348;-74
2022/08/27 10:56:57;;;;;;;;;;;22.90;99.90;;;;;;5008187;28;19921;-74
2022/08/27 10:59:48;;;;;;;;;;;23.00;99.90;;;;;;5013258;28;19921;-74
2022/08/27 11:02:26;;;;;;;;;;;23.10;99.90;;;;;;4987387;28;19921;-73
2022/08/27 11:05:05;;;;;;;;;;;23.20;99.90;;;;;;5016536;28;20403;-73
2022/08/27 11:07:39;;;;;;;;;;;23.40;99.90;;;;;;5015259;28;19925;-74
2022/08/27 11:10:19;;;;;;;;;;;23.60;99.90;;;;;;5017610;28;19931;-73
2022/08/27 11:12:47;;;;;;;;;;;23.60;99.90;;;;;;5014617;28;20000;-73
2022/08/27 11:15:25;;;;;;;;;;;23.80;99.90;;;;;;5013360;28;19928;-74
2022/08/27 11:18:03;;;;;;;;;;;24.00;99.90;;;;;;5016055;28;19936;-74
2022/08/27 11:20:41;;;;;;;;;;;24.10;99.90;;;;;;5016140;28;20020;-73
2022/08/27 11:23:15;;;;;;;;;;;24.30;99.90;;;;;;5002840;28;19944;-74
2022/08/27 11:25:49;;;;;;;;;;;24.60;99.90;;;;;;5015567;28;19967;-74
2022/08/27 11:28:44;;;;;;;;;;;24.50;99.90;;;;;;5020622;28;19921;-74
2022/08/27 11:31:16;;;;;;;;;;;24.50;99.90;;;;;;5001129;28;19925;-73
2022/08/27 11:33:51;;;;;;;;;;;24.60;99.90;;;;;;5007945;28;19956;-73
2022/08/27 11:36:31;;;;;;;;;;;24.50;99.90;;;;;;5013640;28;19926;-74
2022/08/27 11:39:12;;;;;;;;;;;24.20;99.90;;;;;;5003831;28;20241;-74
2022/08/27 11:41:53;;;;;;;;;;;24.10;99.90;;;;;;5021059;28;19922;-74
2022/08/27 11:44:25;;;;;;;;;;;24.00;99.90;;;;;;5017696;28;19921;-73
2022/08/27 11:46:54;;;;;;;;;;;24.00;99.90;;;;;;5013358;28;20303;-74
2022/08/27 11:49:34;;;;;;;;;;;24.00;99.90;;;;;;5013386;28;19925;-74
2022/08/27 11:52:06;;;;;;;;;;;24.10;99.90;;;;;;5001379;28;19928;-74
2022/08/27 11:54:45;;;;;;;;;;;24.10;99.90;;;;;;5016147;28;19932;-74
2022/08/27 11:57:27;;;;;;;;;;;24.10;99.90;;;;;;5005379;28;19928;-74
2022/08/27 12:00:12;;;;;;;;;;;24.10;99.90;;;;;;5013124;28;19961;-74
2022/08/27 12:02:44;;;;;;;;;;;24.10;99.90;;;;;;5001930;28;19922;-74
2022/08/27 12:05:20;;;;;;;;;;;23.90;99.90;;;;;;4995830;28;20379;-74
2022/08/27 12:07:52;;;;;;;;;;;23.70;99.90;;;;;;4997131;28;19932;-74
2022/08/27 12:10:31;;;;;;;;;;;23.60;99.90;;;;;;5002652;28;20261;-74
2022/08/27 12:13:12;;;;;;;;;;;23.40;99.90;;;;;;5022182;28;19927;-72
2022/08/27 12:15:43;;;;;;;;;;;23.30;99.90;;;;;;5017549;28;19932;-73
2022/08/27 12:18:24;;;;;;;;;;;23.00;99.90;;;;;;5026861;28;19925;-73
2022/08/27 12:21:02;;;;;;;;;;;22.70;99.90;;;;;;5011465;28;19928;-73
2022/08/27 12:23:40;;;;;;;;;;;22.10;99.90;;;;;;5002810;28;19921;-73
2022/08/27 12:26:17;;;;;;;;;;;22.00;99.90;;;;;;5018687;28;20280;-73
2022/08/27 12:28:49;;;;;;;;;;;21.90;99.90;;;;;;5015667;28;19921;-73
2022/08/27 12:31:22;;;;;;;;;;;21.70;99.90;;;;;;5036907;28;19961;-73
2022/08/27 12:33:53;;;;;;;;;;;21.70;99.90;;;;;;5020264;28;20459;-74
2022/08/27 12:36:26;;;;;;;;;;;21.70;99.90;;;;;;5006893;28;20386;-73
2022/08/27 12:38:58;;;;;;;;;;;21.70;99.90;;;;;;5024834;28;19921;-73
2022/08/27 12:41:36;;;;;;;;;;;21.80;99.90;;;;;;5020691;28;19928;-74
2022/08/27 12:44:08;;;;;;;;;;;21.90;99.90;;;;;;4994438;28;19940;-74
2022/08/27 12:46:45;;;;;;;;;;;21.80;99.90;;;;;;5015148;28;20391;-74
2022/08/27 12:49:18;;;;;;;;;;;21.70;99.90;;;;;;5015822;28;19931;-74
2022/08/27 12:51:50;;;;;;;;;;;21.70;99.90;;;;;;5019043;28;19925;-73
2022/08/27 12:54:34;;;;;;;;;;;21.70;99.90;;;;;;5036061;28;19928;-73
2022/08/27 12:57:29;;;;;;;;;;;21.70;99.90;;;;;;5007539;28;19921;-74
2022/08/27 13:00:13;;;;;;;;;;;21.60;99.90;;;;;;5013040;28;19943;-74
2022/08/27 13:03:05;;;;;;;;;;;21.70;99.90;;;;;;5021064;28;19921;-73
2022/08/27 13:05:42;;;;;;;;;;;21.50;99.90;;;;;;5046253;28;19925;-73
2022/08/27 13:08:18;;;;;;;;;;;21.40;99.90;;;;;;5014229;28;20015;-73
2022/08/27 13:10:50;;;;;;;;;;;21.30;99.90;;;;;;5021151;28;19927;-73
2022/08/27 13:13:23;;;;;;;;;;;21.10;99.90;;;;;;5010434;28;20384;-73
2022/08/27 13:15:58;;;;;;;;;;;21.10;99.90;;;;;;5011545;28;19925;-73
2022/08/27 13:18:29;;;;;;;;;;;21.20;99.90;;;;;;5000276;28;20562;-74
2022/08/27 13:21:22;;;;;;;;;;;21.00;99.90;;;;;;5002210;28;19928;-73
2022/08/27 13:23:56;;;;;;;;;;;21.00;99.90;;;;;;5026626;28;19932;-73
2022/08/27 13:26:30;;;;;;;;;;;21.20;99.90;;;;;;5014006;28;20031;-73
2022/08/27 13:29:04;;;;;;;;;;;21.20;99.90;;;;;;5010951;28;19921;-74
2022/08/27 13:31:36;;;;;;;;;;;21.30;99.90;;;;;;5022674;28;20023;-74
2022/08/27 13:34:16;;;;;;;;;;;21.30;99.90;;;;;;5012110;28;20457;-74
2022/08/27 13:36:54;;;;;;;;;;;21.30;99.90;;;;;;5018493;28;19925;-73
2022/08/27 13:39:27;;;;;;;;;;;21.30;99.90;;;;;;5025909;28;20310;-73
2022/08/27 13:41:59;;;;;;;;;;;21.10;99.90;;;;;;5010446;28;20045;-73
2022/08/27 13:44:33;;;;;;;;;;;21.10;99.90;;;;;;5022391;28;19925;-73
2022/08/27 13:47:07;;;;;;;;;;;21.00;99.90;;;;;;5021465;28;20020;-74
2022/08/27 13:49:39;;;;;;;;;;;21.00;99.90;;;;;;5026633;28;19971;-73
2022/08/27 13:52:13;;;;;;;;;;;21.10;99.90;;;;;;5022219;28;19927;-73
2022/08/27 13:55:18;;;;;;;;;;;21.20;99.90;;;;;;5008496;28;20295;-73
2022/08/27 13:57:50;;;;;;;;;;;21.40;99.90;;;;;;4975060;28;19924;-74
2022/08/27 14:00:27;;;;;;;;;;;21.40;99.90;;;;;;5024365;28;19921;-74
2022/08/27 14:03:02;;;;;;;;;;;21.30;99.90;;;;;;5015346;28;19935;-74
2022/08/27 14:05:35;;;;;;;;;;;21.30;99.90;;;;;;5030249;28;19932;-73
2022/08/27 14:08:11;;;;;;;;;;;21.40;99.90;;;;;;5028765;28;19926;-74
2022/08/27 14:10:45;;;;;;;;;;;21.60;99.90;;;;;;5036759;28;19928;-74
2022/08/27 14:13:16;;;;;;;;;;;22.00;99.90;;;;;;5011988;28;19943;-74
2022/08/27 14:15:55;;;;;;;;;;;22.30;99.90;;;;;;5002651;28;19972;-74
2022/08/27 14:18:29;;;;;;;;;;;22.50;99.90;;;;;;4989436;28;19991;-74
2022/08/27 14:21:02;;;;;;;;;;;22.70;99.90;;;;;;5003086;28;19928;-73
2022/08/27 14:23:34;;;;;;;;;;;22.80;99.90;;;;;;5016697;28;19929;-73
2022/08/27 14:26:05;;;;;;;;;;;22.90;99.90;;;;;;5011733;28;19921;-74
2022/08/27 14:28:37;;;;;;;;;;;22.90;99.90;;;;;;5019525;28;19961;-74
2022/08/27 14:31:09;;;;;;;;;;;23.00;99.90;;;;;;5016352;28;19972;-74
2022/08/27 14:33:40;;;;;;;;;;;23.40;99.90;;;;;;5010965;28;19979;-73
2022/08/27 14:36:13;;;;;;;;;;;23.40;99.90;;;;;;4994932;28;19925;-73
2022/08/27 14:38:46;;;;;;;;;;;23.40;99.90;;;;;;5014678;28;19922;-73
2022/08/27 14:41:19;;;;;;;;;;;23.40;99.90;;;;;;5011705;28;20458;-74
2022/08/27 14:43:51;;;;;;;;;;;23.30;99.90;;;;;;5031230;28;20284;-74
2022/08/27 14:46:28;;;;;;;;;;;23.20;99.90;;;;;;5033133;28;19921;-73
2022/08/27 14:49:00;;;;;;;;;;;23.20;99.90;;;;;;5029088;28;20272;-73
2022/08/27 14:51:33;;;;;;;;;;;23.30;99.90;;;;;;5014494;28;20372;-74
2022/08/27 14:54:04;;;;;;;;;;;23.40;99.90;;;;;;5023973;28;20299;-72
2022/08/27 14:56:36;;;;;;;;;;;23.40;99.90;;;;;;5024936;28;19931;-74
2022/08/27 14:59:07;;;;;;;;;;;23.60;99.90;;;;;;4996803;28;20014;-73
2022/08/27 15:01:39;;;;;;;;;;;23.70;99.90;;;;;;4990940;28;19929;-73